createdAt,value
2017-07-03T00:02:00.274Z,99.90
2017-07-03T00:04:30.339Z,99.90
2017-07-03T00:06:59.290Z,99.90
2017-07-03T00:09:28.266Z,99.90
2017-07-03T00:11:57.259Z,99.90
2017-07-03T00:14:26.678Z,99.90
2017-07-03T00:16:55.651Z,99.90
2017-07-03T00:19:24.693Z,99.90
2017-07-03T00:21:53.694Z,99.90
2017-07-03T00:24:22.671Z,99.90
2017-07-03T00:26:52.599Z,99.90
2017-07-03T00:29:21.518Z,99.90
2017-07-03T00:33:09.845Z,99.90
2017-07-03T00:35:39.025Z,99.90
2017-07-03T00:38:07.973Z,99.90
2017-07-03T00:40:36.979Z,99.90
2017-07-03T00:43:05.918Z,99.90
2017-07-03T00:45:34.854Z,99.90
2017-07-03T00:48:03.837Z,99.90
2017-07-03T00:50:32.832Z,99.90
2017-07-03T00:53:01.959Z,99.90
2017-07-03T00:55:30.882Z,99.90
2017-07-03T00:57:59.846Z,99.90
2017-07-03T01:00:28.884Z,99.90
2017-07-03T01:02:57.887Z,99.90
2017-07-03T01:05:26.853Z,99.90
2017-07-03T01:07:55.820Z,99.90
2017-07-03T01:10:24.756Z,99.90
2017-07-03T01:12:53.769Z,99.90
2017-07-03T01:15:22.700Z,99.90
2017-07-03T01:17:51.681Z,99.90
2017-07-03T01:20:20.662Z,99.90
2017-07-03T01:22:49.596Z,99.90
2017-07-03T01:25:18.666Z,99.90
2017-07-03T01:27:47.615Z,99.90
2017-07-03T01:30:16.600Z,99.90
2017-07-03T01:32:45.823Z,99.90
2017-07-03T01:35:14.811Z,99.90
2017-07-03T01:37:43.788Z,99.90
2017-07-03T01:40:12.790Z,99.90
2017-07-03T01:42:41.787Z,99.90
2017-07-03T01:45:11.319Z,99.90
2017-07-03T01:47:40.318Z,99.90
2017-07-03T01:50:09.352Z,99.90
2017-07-03T01:52:38.685Z,99.90
2017-07-03T01:55:07.629Z,99.90
2017-07-03T01:57:36.604Z,99.90
2017-07-03T02:00:05.845Z,99.90
2017-07-03T02:02:34.837Z,99.90
2017-07-03T02:05:03.768Z,99.90
2017-07-03T02:07:32.779Z,99.90
2017-07-03T02:10:02.038Z,99.90
2017-07-03T02:12:31.056Z,99.90
2017-07-03T02:15:00.073Z,99.90
2017-07-03T02:17:29.028Z,99.90
2017-07-03T02:19:58.001Z,99.90
2017-07-03T02:22:26.958Z,99.90
2017-07-03T02:24:55.968Z,99.90
2017-07-03T02:27:25.069Z,99.90
2017-07-03T02:29:54.412Z,99.90
2017-07-03T02:32:23.664Z,99.90
2017-07-03T02:34:52.592Z,99.90
2017-07-03T02:37:21.554Z,99.90
2017-07-03T02:39:50.514Z,99.90
2017-07-03T02:42:19.502Z,99.90
2017-07-03T02:44:48.475Z,99.90
2017-07-03T02:47:17.418Z,99.90
2017-07-03T02:49:46.442Z,99.90
2017-07-03T02:52:15.425Z,99.90
2017-07-03T02:54:44.366Z,99.90
2017-07-03T02:57:13.385Z,99.90
2017-07-03T02:59:42.381Z,99.90
2017-07-03T03:02:11.367Z,99.90
2017-07-03T03:04:40.307Z,99.90
2017-07-03T03:07:09.277Z,99.90
2017-07-03T03:09:38.230Z,99.90
2017-07-03T03:12:07.184Z,99.90
2017-07-03T03:14:36.137Z,99.90
2017-07-03T03:17:05.422Z,99.90
2017-07-03T03:19:34.362Z,99.90
2017-07-03T03:22:03.365Z,99.90
2017-07-03T03:24:32.400Z,99.90
2017-07-03T03:27:01.778Z,99.90
2017-07-03T03:29:30.754Z,99.90
2017-07-03T03:31:59.797Z,99.90
2017-07-03T03:34:28.730Z,99.90
2017-07-03T03:36:57.702Z,99.90
2017-07-03T03:39:26.729Z,99.90
2017-07-03T03:41:55.719Z,99.90
2017-07-03T03:44:24.693Z,99.90
2017-07-03T03:46:53.999Z,99.90
2017-07-03T03:49:23.020Z,99.90
2017-07-03T03:51:51.936Z,99.90
2017-07-03T03:54:20.887Z,99.90
2017-07-03T03:56:49.885Z,99.90
2017-07-03T03:59:18.843Z,99.90
2017-07-03T04:01:47.930Z,99.90
2017-07-03T04:04:16.934Z,99.90
2017-07-03T04:06:45.902Z,99.90
2017-07-03T04:09:14.890Z,99.90
2017-07-03T04:11:58.139Z,99.90
2017-07-03T04:14:27.136Z,99.90
2017-07-03T04:16:56.360Z,99.90
2017-07-03T04:19:25.308Z,99.90
2017-07-03T04:21:54.358Z,99.90
2017-07-03T04:24:23.324Z,99.90
2017-07-03T04:26:52.276Z,99.90
2017-07-03T04:29:21.390Z,99.90
2017-07-03T04:31:50.606Z,99.90
2017-07-03T04:34:19.574Z,99.90
2017-07-03T04:36:48.579Z,99.90
2017-07-03T04:39:17.581Z,99.90
2017-07-03T04:41:46.609Z,99.90
2017-07-03T04:45:17.941Z,99.90
2017-07-03T04:47:47.111Z,99.90
2017-07-03T04:50:16.458Z,99.90
2017-07-03T04:52:45.469Z,99.90
2017-07-03T04:55:14.478Z,99.90
2017-07-03T04:57:43.434Z,99.90
2017-07-03T05:00:12.422Z,99.90
2017-07-03T05:02:41.434Z,99.90
2017-07-03T05:05:10.400Z,99.90
2017-07-03T05:07:39.346Z,99.90
2017-07-03T05:10:08.362Z,99.90
2017-07-03T05:12:37.326Z,99.90
2017-07-03T05:15:06.248Z,99.90
2017-07-03T05:17:35.327Z,99.90
2017-07-03T05:20:04.361Z,99.90
2017-07-03T05:22:33.355Z,99.90
2017-07-03T05:25:02.296Z,99.90
2017-07-03T05:27:31.236Z,99.90
2017-07-03T05:30:00.274Z,99.90
2017-07-03T05:32:29.273Z,99.90
2017-07-03T05:34:58.212Z,99.30
2017-07-03T05:37:27.183Z,99.50
2017-07-03T05:39:56.172Z,99.90
2017-07-03T05:42:29.383Z,99.90
2017-07-03T05:44:58.377Z,99.90
2017-07-03T05:47:27.329Z,99.90
2017-07-03T05:49:56.341Z,99.90
2017-07-03T05:52:25.336Z,99.90
2017-07-03T05:54:54.294Z,99.90
2017-07-03T05:57:23.311Z,99.90
2017-07-03T05:59:52.355Z,99.90
2017-07-03T06:02:21.678Z,99.90
2017-07-03T06:04:50.745Z,99.90
2017-07-03T06:07:19.914Z,99.90
2017-07-03T06:09:48.915Z,99.90
2017-07-03T06:12:19.606Z,99.90
2017-07-03T06:14:49.366Z,99.90
2017-07-03T06:17:18.331Z,99.90
2017-07-03T06:19:47.332Z,99.90
2017-07-03T06:22:16.297Z,99.90
2017-07-03T06:24:45.311Z,99.90
2017-07-03T06:27:14.332Z,99.90
2017-07-03T06:29:43.325Z,99.70
2017-07-03T06:32:12.287Z,97.10
2017-07-03T06:34:41.310Z,93.20
2017-07-03T06:37:10.374Z,90.20
2017-07-03T06:39:39.391Z,89.70
2017-07-03T06:42:08.513Z,88.00
2017-07-03T06:44:37.542Z,85.00
2017-07-03T06:47:06.877Z,85.60
2017-07-03T06:49:35.935Z,89.60
2017-07-03T06:52:04.961Z,91.60
2017-07-03T06:54:34.048Z,90.40
2017-07-03T06:57:03.181Z,83.90
2017-07-03T06:59:32.317Z,80.50
2017-07-03T07:02:01.351Z,76.90
2017-07-03T07:04:30.313Z,72.40
2017-07-03T07:06:59.331Z,74.10
2017-07-03T07:09:28.350Z,73.50
2017-07-03T07:11:57.409Z,71.60
2017-07-03T07:14:26.357Z,65.70
2017-07-03T07:16:55.331Z,65.00
2017-07-03T07:19:24.381Z,67.10
2017-07-03T07:21:53.385Z,69.00
2017-07-03T07:24:22.339Z,76.20
2017-07-03T07:29:30.355Z,75.10
2017-07-03T07:31:59.361Z,68.20
2017-07-03T07:34:28.352Z,60.40
2017-07-03T07:36:57.343Z,57.10
2017-07-03T07:39:26.658Z,63.40
2017-07-03T07:41:55.673Z,67.60
2017-07-03T07:44:24.698Z,69.90
2017-07-03T07:46:53.768Z,71.60
2017-07-03T07:49:22.797Z,76.70
2017-07-03T07:51:52.381Z,81.30
2017-07-03T07:54:21.474Z,82.90
2017-07-03T07:56:50.460Z,84.30
2017-07-03T07:59:19.485Z,81.30
2017-07-03T08:01:48.510Z,73.70
2017-07-03T08:04:17.631Z,72.60
2017-07-03T08:06:46.581Z,73.00
2017-07-03T08:09:15.572Z,78.90
2017-07-03T08:11:44.662Z,76.80
2017-07-03T08:14:13.726Z,71.50
2017-07-03T08:16:42.714Z,71.20
2017-07-03T08:19:11.739Z,59.50
2017-07-03T08:21:40.720Z,55.60
2017-07-03T08:24:09.742Z,57.50
2017-07-03T08:26:38.712Z,55.90
2017-07-03T08:29:07.851Z,51.70
2017-07-03T08:31:36.807Z,53.90
2017-07-03T08:34:05.954Z,49.80
2017-07-03T08:36:39.422Z,48.20
2017-07-03T08:39:08.451Z,48.60
2017-07-03T08:41:37.441Z,47.40
2017-07-03T08:44:06.430Z,44.90
2017-07-03T08:46:35.507Z,44.20
2017-07-03T08:49:04.569Z,46.00
2017-07-03T08:51:37.355Z,48.50
2017-07-03T08:54:06.744Z,50.70
2017-07-03T08:56:35.802Z,55.30
2017-07-03T08:59:05.001Z,53.00
2017-07-03T09:01:33.962Z,49.60
2017-07-03T09:04:02.990Z,50.50
2017-07-03T09:06:33.868Z,46.60
2017-07-03T09:09:02.891Z,44.20
2017-07-03T09:11:32.005Z,44.00
2017-07-03T09:14:01.055Z,44.50
2017-07-03T09:16:30.162Z,43.80
2017-07-03T09:18:59.224Z,46.00
2017-07-03T09:21:28.198Z,45.50
2017-07-03T09:23:57.352Z,44.70
2017-07-03T09:26:26.537Z,42.70
2017-07-03T09:28:55.580Z,42.40
2017-07-03T09:31:24.750Z,41.90
2017-07-03T09:33:53.940Z,43.60
2017-07-03T09:36:23.174Z,49.30
2017-07-03T09:38:52.443Z,51.80
2017-07-03T09:41:21.499Z,50.00
2017-07-03T09:43:50.481Z,49.50
2017-07-03T09:46:19.561Z,48.70
2017-07-03T09:48:48.568Z,47.00
2017-07-03T09:51:17.849Z,43.30
2017-07-03T09:53:46.886Z,46.40
2017-07-03T09:56:15.988Z,44.90
2017-07-03T09:58:45.088Z,46.20
2017-07-03T10:01:14.106Z,44.90
2017-07-03T10:03:43.203Z,47.20
2017-07-03T10:06:12.340Z,47.70
2017-07-03T10:08:41.396Z,47.00
2017-07-03T10:11:10.374Z,46.00
2017-07-03T10:13:39.384Z,47.40
2017-07-03T10:16:08.510Z,47.90
2017-07-03T10:18:37.642Z,46.40
2017-07-03T10:21:06.758Z,40.80
2017-07-03T10:23:35.834Z,43.50
2017-07-03T10:26:04.960Z,48.10
2017-07-03T10:28:34.047Z,42.80
2017-07-03T10:31:03.109Z,41.40
2017-07-03T10:33:32.175Z,40.70
2017-07-03T10:36:01.237Z,45.40
2017-07-03T10:38:30.306Z,46.70
2017-07-03T10:40:59.335Z,45.90
2017-07-03T10:43:28.394Z,43.80
2017-07-03T10:45:57.676Z,46.70
2017-07-03T10:48:26.828Z,44.40
2017-07-03T10:50:55.838Z,42.10
2017-07-03T10:53:24.903Z,44.80
2017-07-03T10:55:53.982Z,45.60
2017-07-03T10:58:23.058Z,46.90
2017-07-03T11:00:52.053Z,43.20
2017-07-03T11:03:21.192Z,39.70
2017-07-03T11:06:04.811Z,38.50
2017-07-03T11:08:38.896Z,44.50
2017-07-03T11:11:07.938Z,47.50
2017-07-03T11:13:36.999Z,45.20
2017-07-03T11:16:06.074Z,41.90
2017-07-03T11:18:35.451Z,40.40
2017-07-03T11:21:04.458Z,39.00
2017-07-03T11:23:33.460Z,40.50
2017-07-03T11:26:02.454Z,42.00
2017-07-03T11:28:35.034Z,36.80
2017-07-03T11:32:06.632Z,39.90
2017-07-03T11:34:35.611Z,41.90
2017-07-03T11:37:04.584Z,44.70
2017-07-03T11:39:33.639Z,46.10
2017-07-03T11:42:02.632Z,45.50
2017-07-03T11:44:31.615Z,41.20
2017-07-03T11:47:00.696Z,46.90
2017-07-03T11:49:29.769Z,41.40
2017-07-03T11:51:58.996Z,43.50
2017-07-03T11:54:28.184Z,47.60
2017-07-03T11:56:57.313Z,45.20
2017-07-03T11:59:26.338Z,44.40
2017-07-03T12:01:55.444Z,47.20
2017-07-03T12:04:24.470Z,46.10
2017-07-03T12:06:53.642Z,45.40
2017-07-03T12:09:22.717Z,44.30
2017-07-03T12:11:51.695Z,46.40
2017-07-03T12:14:20.706Z,48.70
2017-07-03T12:16:49.737Z,48.10
2017-07-03T12:19:18.745Z,50.30
2017-07-03T12:21:47.824Z,45.10
2017-07-03T12:24:16.897Z,49.80
2017-07-03T12:26:45.975Z,48.10
2017-07-03T12:29:17.054Z,47.40
2017-07-03T12:31:46.095Z,46.00
2017-07-03T12:34:17.235Z,48.90
2017-07-03T12:36:46.302Z,48.50
2017-07-03T12:39:16.817Z,44.20
2017-07-03T12:41:45.974Z,45.90
2017-07-03T12:44:15.350Z,49.70
2017-07-03T12:46:44.318Z,46.50
2017-07-03T12:49:13.306Z,44.90
2017-07-03T12:51:42.337Z,46.30
2017-07-03T12:54:11.411Z,45.50
2017-07-03T12:56:40.446Z,46.10
2017-07-03T12:59:09.558Z,48.10
2017-07-03T13:01:38.601Z,51.20
2017-07-03T13:04:07.685Z,50.20
2017-07-03T13:06:36.749Z,49.70
2017-07-03T13:09:06.065Z,48.70
2017-07-03T13:11:35.136Z,46.90
2017-07-03T13:14:04.300Z,51.10
2017-07-03T13:16:33.454Z,53.30
2017-07-03T13:19:02.690Z,51.60
2017-07-03T13:21:31.829Z,49.80
2017-07-03T13:24:00.819Z,49.60
2017-07-03T13:26:29.891Z,54.80
2017-07-03T13:28:59.240Z,55.90
2017-07-03T13:31:28.337Z,51.70
2017-07-03T13:33:57.461Z,50.80
2017-07-03T13:36:26.654Z,53.40
2017-07-03T13:38:55.752Z,54.60
2017-07-03T13:41:27.670Z,51.30
2017-07-03T13:43:56.807Z,50.90
2017-07-03T13:46:25.896Z,52.20
2017-07-03T13:48:55.555Z,52.50
2017-07-03T13:51:24.587Z,56.80
2017-07-03T13:53:53.630Z,52.10
2017-07-03T13:56:22.658Z,55.90
2017-07-03T13:58:51.792Z,54.70
2017-07-03T14:01:20.821Z,55.10
2017-07-03T14:03:49.887Z,55.20
2017-07-03T14:06:19.023Z,53.00
2017-07-03T14:08:48.151Z,56.90
2017-07-03T14:11:17.224Z,57.10
2017-07-03T14:13:46.499Z,54.70
2017-07-03T14:16:15.530Z,52.10
2017-07-03T14:18:44.545Z,58.50
2017-07-03T14:21:13.590Z,57.20
2017-07-03T14:23:42.638Z,55.30
2017-07-03T14:28:49.892Z,55.90
2017-07-03T14:31:20.109Z,60.00
2017-07-03T14:33:49.198Z,56.60
2017-07-03T14:36:18.207Z,53.60
2017-07-03T14:38:47.295Z,53.10
2017-07-03T14:41:16.529Z,51.80
2017-07-03T14:43:45.584Z,53.60
2017-07-03T14:46:14.650Z,53.00
2017-07-03T14:48:43.672Z,50.20
2017-07-03T14:51:12.922Z,51.70
2017-07-03T14:53:41.963Z,50.70
2017-07-03T14:56:11.092Z,53.00
2017-07-03T14:58:40.207Z,54.20
2017-07-03T15:01:09.697Z,49.90
2017-07-03T15:03:38.838Z,50.00
2017-07-03T15:06:08.112Z,49.90
2017-07-03T15:08:37.175Z,50.80
2017-07-03T15:11:06.236Z,50.40
2017-07-03T15:13:35.327Z,48.60
2017-07-03T15:16:04.466Z,52.40
2017-07-03T15:18:33.572Z,51.90
2017-07-03T15:21:02.714Z,52.80
2017-07-03T15:23:31.943Z,53.40
2017-07-03T15:26:02.187Z,52.50
2017-07-03T15:28:31.259Z,51.10
2017-07-03T15:31:00.254Z,50.80
2017-07-03T15:33:29.253Z,51.50
2017-07-03T15:35:58.464Z,49.00
2017-07-03T15:38:27.525Z,50.00
2017-07-03T15:40:56.670Z,51.40
2017-07-03T15:43:25.705Z,51.40
2017-07-03T15:45:54.893Z,52.10
2017-07-03T15:48:23.922Z,51.20
2017-07-03T15:50:53.038Z,50.70
2017-07-03T15:53:22.899Z,49.90
2017-07-03T15:55:52.590Z,50.90
2017-07-03T15:58:21.741Z,52.60
2017-07-03T16:00:51.764Z,50.90
2017-07-03T16:03:21.885Z,51.20
2017-07-03T16:05:50.973Z,50.70
2017-07-03T16:08:20.090Z,49.20
2017-07-03T16:10:49.915Z,50.50
2017-07-03T16:13:19.353Z,50.30
2017-07-03T16:15:48.532Z,49.60
2017-07-03T16:18:17.708Z,49.90
2017-07-03T16:20:59.692Z,50.50
2017-07-03T16:23:29.019Z,51.90
2017-07-03T16:25:58.322Z,51.90
2017-07-03T16:28:27.439Z,53.10
2017-07-03T16:30:56.601Z,52.60
2017-07-03T16:33:26.102Z,53.30
2017-07-03T16:35:55.271Z,52.60
2017-07-03T16:38:24.417Z,53.70
2017-07-03T16:40:53.553Z,53.30
2017-07-03T16:43:22.617Z,53.40
2017-07-03T16:45:51.749Z,53.00
2017-07-03T16:48:20.904Z,53.40
2017-07-03T16:50:56.357Z,53.80
2017-07-03T16:53:25.368Z,54.60
2017-07-03T16:55:55.390Z,55.30
2017-07-03T16:58:24.463Z,55.90
2017-07-03T17:00:53.509Z,56.30
2017-07-03T17:03:23.430Z,57.30
2017-07-03T17:05:52.810Z,56.50
2017-07-03T17:08:21.836Z,56.70
2017-07-03T17:11:05.161Z,57.50
2017-07-03T17:13:34.256Z,57.10
2017-07-03T17:16:03.307Z,57.40
2017-07-03T17:18:32.447Z,57.00
2017-07-03T17:21:01.507Z,57.80
2017-07-03T17:23:30.545Z,59.50
2017-07-03T17:25:59.662Z,59.00
2017-07-03T17:28:28.713Z,59.20
2017-07-03T17:30:57.861Z,59.20
2017-07-03T17:33:26.948Z,59.70
2017-07-03T17:35:56.269Z,60.00
2017-07-03T17:38:25.390Z,60.20
2017-07-03T17:40:57.445Z,61.30
2017-07-03T17:43:26.531Z,61.50
2017-07-03T17:45:55.765Z,60.50
2017-07-03T17:48:24.867Z,61.20
2017-07-03T17:50:53.892Z,60.90
2017-07-03T17:53:23.033Z,61.00
2017-07-03T17:55:52.063Z,62.00
2017-07-03T17:58:21.082Z,61.60
2017-07-03T18:00:50.229Z,62.10
2017-07-03T18:03:19.339Z,63.60
2017-07-03T18:05:48.444Z,62.20
2017-07-03T18:08:17.558Z,63.50
2017-07-03T18:10:46.538Z,64.40
2017-07-03T18:13:15.508Z,65.40
2017-07-03T18:15:45.367Z,66.20
2017-07-03T18:18:14.429Z,68.20
2017-07-03T18:20:43.470Z,69.10
2017-07-03T18:23:12.540Z,69.70
2017-07-03T18:25:41.580Z,70.10
2017-07-03T18:28:10.651Z,69.60
2017-07-03T18:30:39.761Z,71.10
2017-07-03T18:33:08.812Z,71.90
2017-07-03T18:35:37.794Z,73.10
2017-07-03T18:38:07.928Z,73.70
2017-07-03T18:40:36.982Z,73.70
2017-07-03T18:43:05.957Z,76.00
2017-07-03T18:45:35.214Z,76.20
2017-07-03T18:48:04.293Z,78.10
2017-07-03T18:50:33.319Z,77.30
2017-07-03T18:53:02.318Z,77.50
2017-07-03T18:55:31.368Z,75.50
2017-07-03T18:58:00.404Z,77.00
2017-07-03T19:00:29.486Z,77.70
2017-07-03T19:02:58.637Z,76.90
2017-07-03T19:05:27.733Z,77.10
2017-07-03T19:10:56.312Z,77.30
2017-07-03T19:13:25.396Z,77.70
2017-07-03T19:15:54.403Z,78.80
2017-07-03T19:18:23.460Z,78.10
2017-07-03T19:20:52.485Z,80.80
2017-07-03T19:23:21.545Z,80.50
2017-07-03T19:25:50.603Z,82.70
2017-07-03T19:28:19.665Z,83.00
2017-07-03T19:30:48.758Z,81.50
2017-07-03T19:33:17.885Z,82.10
2017-07-03T19:35:46.904Z,84.30
2017-07-03T19:38:15.890Z,85.70
2017-07-03T19:40:44.874Z,85.10
2017-07-03T19:43:14.006Z,84.30
2017-07-03T19:45:43.017Z,83.70
2017-07-03T19:48:12.116Z,85.20
2017-07-03T19:50:41.309Z,84.20
2017-07-03T19:53:10.668Z,84.70
2017-07-03T19:55:39.753Z,83.20
2017-07-03T19:58:08.927Z,83.00
2017-07-03T20:00:37.993Z,83.50
2017-07-03T20:03:07.060Z,83.90
2017-07-03T20:05:36.106Z,85.20
2017-07-03T20:08:05.170Z,83.60
2017-07-03T20:10:34.189Z,85.20
2017-07-03T20:13:03.228Z,86.20
2017-07-03T20:15:32.255Z,83.70
2017-07-03T20:18:01.338Z,85.40
2017-07-03T20:20:30.432Z,85.00
2017-07-03T20:22:59.584Z,85.80
2017-07-03T20:25:28.642Z,84.60
2017-07-03T20:27:57.730Z,85.50
2017-07-03T20:30:26.797Z,87.70
2017-07-03T20:32:55.843Z,86.40
2017-07-03T20:35:24.846Z,86.30
2017-07-03T20:37:53.944Z,87.50
2017-07-03T20:40:22.963Z,86.40
2017-07-03T20:42:54.905Z,86.00
2017-07-03T20:45:24.006Z,85.70
2017-07-03T20:47:53.037Z,86.40
2017-07-03T20:50:22.056Z,86.30
2017-07-03T20:52:51.433Z,86.80
2017-07-03T20:55:20.518Z,86.20
2017-07-03T20:57:49.586Z,85.70
2017-07-03T21:00:18.645Z,85.60
2017-07-03T21:02:47.656Z,85.10
2017-07-03T21:05:16.666Z,85.40
2017-07-03T21:07:45.730Z,85.70
2017-07-03T21:10:14.766Z,85.60
2017-07-03T21:12:43.788Z,86.10
2017-07-03T21:15:12.802Z,86.60
2017-07-03T21:17:41.782Z,86.20
2017-07-03T21:20:10.922Z,86.20
2017-07-03T21:22:40.052Z,87.20
2017-07-03T21:25:09.164Z,87.50
2017-07-03T21:27:38.203Z,88.00
2017-07-03T21:30:07.165Z,88.10
2017-07-03T21:32:36.176Z,88.90
2017-07-03T21:35:05.532Z,90.20
2017-07-03T21:37:34.552Z,90.20
2017-07-03T21:40:03.544Z,90.40
2017-07-03T21:42:32.544Z,90.30
2017-07-03T21:45:01.539Z,90.10
2017-07-03T21:47:30.554Z,89.40
2017-07-03T21:49:59.587Z,89.20
2017-07-03T21:52:31.923Z,89.00
2017-07-03T21:55:00.972Z,88.80
2017-07-03T21:57:30.014Z,88.70
2017-07-03T21:59:59.089Z,88.40
2017-07-03T22:02:28.126Z,88.70
2017-07-03T22:04:57.194Z,88.70
2017-07-03T22:07:26.485Z,88.90
2017-07-03T22:09:55.451Z,89.40
2017-07-03T22:12:24.435Z,89.80
2017-07-03T22:14:53.432Z,89.50
2017-07-03T22:17:22.433Z,88.90
2017-07-03T22:19:51.445Z,89.30
2017-07-03T22:22:20.443Z,89.30
2017-07-03T22:24:49.499Z,89.30
2017-07-03T22:27:18.460Z,89.60
2017-07-03T22:29:47.423Z,90.30
2017-07-03T22:32:16.404Z,90.40
2017-07-03T22:34:45.382Z,90.80
2017-07-03T22:37:14.413Z,90.90
2017-07-03T22:39:43.435Z,91.10
2017-07-03T22:42:12.430Z,91.00
2017-07-03T22:44:41.434Z,91.20
2017-07-03T22:47:10.472Z,91.50
2017-07-03T22:49:39.476Z,91.60
2017-07-03T22:52:08.504Z,91.90
2017-07-03T22:54:37.514Z,92.00
2017-07-03T22:57:06.488Z,92.30
2017-07-03T22:59:35.449Z,92.20
2017-07-03T23:02:04.475Z,92.50
2017-07-03T23:04:33.443Z,92.80
2017-07-03T23:07:02.422Z,92.70
2017-07-03T23:09:31.443Z,92.90
2017-07-03T23:12:00.423Z,93.00
2017-07-03T23:14:29.412Z,93.30
2017-07-03T23:16:58.385Z,93.30
2017-07-03T23:19:27.420Z,93.50
2017-07-03T23:21:56.692Z,93.30
2017-07-03T23:24:25.740Z,93.20
2017-07-03T23:26:54.717Z,93.70
2017-07-03T23:29:23.750Z,93.70
2017-07-03T23:31:52.773Z,93.70
2017-07-03T23:34:21.762Z,94.00
2017-07-03T23:36:50.764Z,94.00
2017-07-03T23:39:19.792Z,94.30
2017-07-03T23:41:48.753Z,94.30
2017-07-03T23:44:17.733Z,94.40
2017-07-03T23:46:46.750Z,94.60
2017-07-03T23:49:15.739Z,94.70
2017-07-03T23:51:44.749Z,94.80
2017-07-03T23:54:13.808Z,94.90
2017-07-03T23:56:42.791Z,95.10
2017-07-03T23:59:11.732Z,95.10
